Jim Hamilton L.B. Owens Airport Columbia US
ICAO: KCUB
IATA: CUB
Category: Medium
Scheduled Services: No

Elevation: 193 ft
TransAlt. 18000 ft.

Airport Communications:
APP/DEP:133.4
ASOS:119.675
CLNC DEL:124.4
MIL OPS:122.8
ANDERSON RDO:114.7
CTAF/UNICOM:122.8

KCUB Zoom In..

If Map Doesn't Load, Click Here

Runways:

(A) RW 13 length 5011 ft width 75 ft
LOC 110.90 / hdg 131

(B) RW 31 length 5011 ft width 75 ft
LOC 110.90 / hdg 311

Location; KCUB
Day. 21 / Time. 12.53 Zulu
* Altimeter: 30.23
* Temperature: 25° c. 77°f.
* Wind from: 000° Speed 00 kn.
Dewpoint: 22° c.
Visibility: 8 Statute Miles.
Clouds: Clear (automated report).

KCUB 211253Z AUTO 00000KT 8SM CLR 25/22 A3023 RMK AO2 SLP233 T02500217


Wind - Calm.

 
 
jpsmedia.com for Web Design worldairports.se 2018   terms of use